Time;durP1;ratioP1;P1;durP2;ratioP2;P2;SDS_P1;SDS_P2;PMS_P1;PMS_P2;Temp;Humidity;BMP_temperature;BMP_pressure;BME280_temperature;BME280_humidity;BME280_pressure;Samples;Min_cycle;Max_cycle;Signal;HPM_P1;HPM_P2
2023/10/19 00:00:36;;;;;;;0.00;0.00;;;;;;;11.49;100.00;99131.44;5113444;28;20046;-44
2023/10/19 00:03:06;;;;;;;0.00;0.00;;;;;;;11.48;100.00;99129.81;5094650;28;20050;-47
2023/10/19 00:05:32;;;;;;;0.00;0.00;;;;;;;11.48;100.00;99123.56;5114071;28;20115;-41
2023/10/19 00:08:05;;;;;;;0.00;0.00;;;;;;;11.54;100.00;99122.69;5113121;28;20032;-44
2023/10/19 00:10:34;;;;;;;0.00;0.00;;;;;;;11.51;100.00;99129.34;5114330;28;20036;-44
2023/10/19 00:13:03;;;;;;;0.00;0.00;;;;;;;11.58;100.00;99123.84;5114153;28;20028;-42
2023/10/19 00:15:31;;;;;;;0.00;0.00;;;;;;;11.58;100.00;99130.03;5114075;28;20465;-44
2023/10/19 00:17:59;;;;;;;;;;;;;;;11.59;100.00;99123.63;5113995;28;20028;-43
2023/10/19 00:20:35;;;;;;;0.00;0.00;;;;;;;11.64;100.00;99129.16;5114575;28;19912;-48
2023/10/19 00:23:05;;;;;;;0.00;0.00;;;;;;;11.64;100.00;99129.16;5113968;28;20057;-49
2023/10/19 00:25:31;;;;;;;0.00;0.00;;;;;;;11.70;100.00;99127.41;5113939;28;20115;-50
2023/10/19 00:28:00;;;;;;;0.00;0.00;;;;;;;11.75;100.00;99118.63;5113211;28;20481;-49
2023/10/19 00:30:30;;;;;;;0.00;0.00;;;;;;;11.79;100.00;99115.22;5114007;28;20023;-50
2023/10/19 00:32:57;;;;;;;0.00;0.00;;;;;;;11.81;100.00;99123.06;5113585;28;20042;-47
2023/10/19 00:35:31;;;;;;;0.00;0.00;;;;;;;11.84;100.00;99119.91;5113690;28;20063;-46
2023/10/19 00:38:18;;;;;;;0.00;0.00;;;;;;;11.86;100.00;99118.66;5114266;28;20042;-47
2023/10/19 00:40:47;;;;;;;0.00;0.00;;;;;;;11.95;100.00;99118.31;5113874;28;20249;-48
2023/10/19 00:43:13;;;;;;;0.00;0.00;;;;;;;11.99;100.00;99111.41;5113796;28;20032;-46
2023/10/19 00:45:39;;;;;;;0.00;0.00;;;;;;;12.03;100.00;99112.56;5113747;28;20114;-48
2023/10/19 00:48:08;;;;;;;0.00;0.00;;;;;;;12.10;100.00;99115.16;5113486;28;20023;-45
2023/10/19 00:50:33;;;;;;;0.00;0.00;;;;;;;12.09;100.00;99114.34;5095756;28;20088;-45
2023/10/19 00:52:59;;;;;;;0.00;0.00;;;;;;;12.09;100.00;99100.88;5113646;28;20053;-48
2023/10/19 00:55:27;;;;;;;0.00;0.00;;;;;;;12.14;100.00;99127.13;5113543;28;20447;-46
2023/10/19 00:57:54;;;;;;;0.00;0.00;;;;;;;12.18;100.00;99098.63;5113414;28;20038;-46
2023/10/19 01:00:30;;;;;;;0.00;0.00;;;;;;;12.17;100.00;99108.59;5113839;28;20115;-44
2023/10/19 01:02:59;;;;;;;0.00;0.00;;;;;;;12.28;100.00;99106.97;5118146;27;20058;-47
2023/10/19 01:05:32;;;;;;;0.00;0.00;;;;;;;12.26;100.00;99122.56;5111583;28;20738;-43
2023/10/19 01:08:02;;;;;;;0.00;0.00;;;;;;;12.25;100.00;99118.22;5110647;28;20043;-44
2023/10/19 01:10:28;;;;;;;0.00;0.00;;;;;;;12.26;100.00;99117.16;5094676;28;20023;-45
2023/10/19 01:12:53;;;;;;;0.00;0.00;;;;;;;12.37;100.00;99116.31;5112501;28;20038;-46
2023/10/19 01:15:29;;;;;;;0.00;0.00;;;;;;;12.45;100.00;99121.38;5111963;28;20027;-45
2023/10/19 01:17:58;;;;;;;0.00;0.00;;;;;;;12.49;100.00;99119.84;5106242;28;20153;-46
2023/10/19 01:28:25;;;;;;;0.00;0.00;;;;;;;12.78;100.00;99116.41;5110703;28;20085;-48
2023/10/19 01:30:53;;;;;;;0.00;0.00;;;;;;;12.86;100.00;99116.81;5111647;28;20037;-48
2023/10/19 01:33:20;;;;;;;0.00;0.00;;;;;;;12.95;100.00;99118.09;5112627;28;20027;-51
2023/10/19 01:38:33;;;;;;;0.00;0.00;;;;;;;13.19;100.00;99104.50;5107874;28;20050;-47
2023/10/19 01:41:06;;;;;;;0.00;0.00;;;;;;;13.19;100.00;99107.19;5111968;28;20039;-45
2023/10/19 01:43:31;;;;;;;0.00;0.00;;;;;;;13.23;100.00;99104.84;5111726;28;20024;-45
2023/10/19 01:46:05;;;;;;;0.00;0.00;;;;;;;13.26;100.00;99097.09;5095935;28;20153;-42
2023/10/19 01:48:33;;;;;;;0.00;0.00;;;;;;;13.29;100.00;99106.59;5114561;28;20512;-41
2023/10/19 01:51:06;;;;;;;0.00;0.00;;;;;;;13.32;100.00;99106.94;5113695;28;20024;-43
2023/10/19 01:53:36;;;;;;;0.00;0.00;;;;;;;13.48;100.00;99109.91;5112150;28;20043;-43
2023/10/19 01:56:05;;;;;;;0.00;0.00;;;;;;;13.46;100.00;99115.56;5112694;28;20157;-41
2023/10/19 01:58:36;;;;;;;0.00;0.00;;;;;;;13.48;100.00;99105.34;5113257;28;20489;-42
2023/10/19 02:01:06;;;;;;;0.00;0.00;;;;;;;13.47;100.00;99106.38;5112636;28;20027;-42
2023/10/19 02:03:32;;;;;;;0.00;0.00;;;;;;;13.48;100.00;99105.34;5111918;28;20067;-40
2023/10/19 02:06:09;;;;;;;0.00;0.00;;;;;;;13.47;100.00;99108.28;5114037;28;20069;-46
2023/10/19 02:08:38;;;;;;;0.00;0.00;;;;;;;13.49;100.00;99108.88;5114497;28;20032;-42
2023/10/19 02:11:06;;;;;;;0.00;0.00;;;;;;;13.51;100.00;99110.25;5095070;28;20051;-44
2023/10/19 02:13:32;;;;;;;0.00;0.00;;;;;;;13.49;100.00;99104.28;5111954;28;20024;-43
2023/10/19 02:15:57;;;;;;;0.00;0.00;;;;;;;13.51;100.00;99093.22;5111686;28;20024;-46
2023/10/19 02:18:22;;;;;;;0.00;0.00;;;;;;;13.49;100.00;99089.94;5110651;28;20084;-42
2023/10/19 02:20:48;;;;;;;0.00;0.00;;;;;;;13.48;100.00;99088.28;5110622;28;20114;-42
2023/10/19 02:23:14;;;;;;;0.00;0.00;;;;;;;13.48;100.00;99089.13;5110185;28;20122;-45
2023/10/19 02:25:40;;;;;;;0.00;0.00;;;;;;;13.48;100.00;99093.69;5111330;28;20064;-44
2023/10/19 02:28:09;;;;;;;0.00;0.00;;;;;;;13.47;100.00;99090.19;5110058;28;20386;-44
2023/10/19 02:30:34;;;;;;;0.00;0.00;;;;;;;13.49;100.00;99084.53;5111220;28;20024;-42
2023/10/19 02:33:01;;;;;;;0.00;0.00;;;;;;;13.50;100.00;99083.47;5105239;28;20028;-43
2023/10/19 02:35:27;;;;;;;0.00;0.00;;;;;;;13.48;100.00;99091.84;5109543;28;20083;-44
2023/10/19 02:37:53;;;;;;;0.00;0.00;;;;;;;13.51;100.00;99082.41;5109239;28;20466;-41
2023/10/19 02:40:23;;;;;;;0.00;0.00;;;;;;;13.47;100.00;99086.66;5110621;28;20049;-41
2023/10/19 02:42:50;;;;;;;0.00;0.00;;;;;;;13.47;100.00;99081.25;5092088;28;20057;-43
2023/10/19 02:45:16;;;;;;;0.00;0.00;;;;;;;13.44;100.00;99093.38;5110170;28;20042;-43
2023/10/19 02:47:45;;;;;;;0.00;0.00;;;;;;;13.47;100.00;99078.56;5109447;28;20032;-43
2023/10/19 02:50:15;;;;;;;0.00;0.00;;;;;;;13.46;100.00;99085.03;5110876;28;20107;-42
2023/10/19 02:52:46;;;;;;;0.00;0.00;;;;;;;13.47;100.00;99083.97;5109238;28;20043;-42
2023/10/19 02:55:11;;;;;;;0.00;0.00;;;;;;;13.46;100.00;99085.03;5112676;27;20027;-44
2023/10/19 02:57:37;;;;;;;0.00;0.00;;;;;;;13.47;100.00;99087.47;5110877;28;20026;-42
2023/10/19 03:00:11;;;;;;;0.00;0.00;;;;;;;13.51;100.00;99077.00;5109917;28;20027;-42
2023/10/19 03:02:36;;;;;;;0.00;0.00;;;;;;;13.48;100.00;99077.47;5110514;28;20048;-44
2023/10/19 03:05:09;;;;;;;0.00;0.00;;;;;;;13.50;100.00;99076.16;5109452;28;20034;-42
2023/10/19 03:07:34;;;;;;;0.00;0.00;;;;;;;13.51;100.00;99082.41;5110548;28;20501;-43
2023/10/19 03:10:02;;;;;;;0.00;0.00;;;;;;;13.48;100.00;99080.19;5110716;28;20028;-43
2023/10/19 03:12:27;;;;;;;0.00;0.00;;;;;;;13.42;100.00;99068.47;5111147;28;20023;-42
2023/10/19 03:14:53;;;;;;;0.00;0.00;;;;;;;13.43;100.00;99074.69;5110627;28;20346;-43
2023/10/19 03:17:18;;;;;;;0.00;0.00;;;;;;;13.39;100.00;99069.78;5111549;28;20394;-40
2023/10/19 03:19:43;;;;;;;0.00;0.00;;;;;;;13.38;100.00;99060.03;5110554;28;20051;-42
2023/10/19 03:22:10;;;;;;;0.00;0.00;;;;;;;13.39;100.00;99064.38;5111216;28;20035;-43
2023/10/19 03:24:35;;;;;;;0.00;0.00;;;;;;;13.36;100.00;99059.47;5110719;28;20485;-43
2023/10/19 03:29:48;;;;;;;0.00;0.00;;;;;;;13.31;100.00;99056.66;5110508;28;20040;-41
2023/10/19 03:32:14;;;;;;;0.00;0.00;;;;;;;13.29;100.00;99053.38;5092130;28;20023;-42
2023/10/19 03:34:43;;;;;;;0.00;0.00;;;;;;;13.27;100.00;99055.53;5110887;28;20435;-43
2023/10/19 03:37:14;;;;;;;0.00;0.00;;;;;;;13.29;100.00;99058.78;5110739;28;20039;-42
2023/10/19 03:39:40;;;;;;;0.00;0.00;;;;;;;13.31;100.00;99053.97;5111266;28;20027;-42
2023/10/19 03:42:06;;;;;;;0.00;0.00;;;;;;;13.40;100.00;99057.06;5110348;28;20443;-42
2023/10/19 03:44:53;;;;;;;0.00;0.00;;;;;;;13.38;100.00;99054.63;5110761;28;20031;-42
2023/10/19 03:47:25;;;;;;;0.00;0.00;;;;;;;13.41;100.00;99047.09;5110094;28;20036;-43
2023/10/19 03:49:50;;;;;;;0.00;0.00;;;;;;;13.45;100.00;99056.34;5110445;28;20041;-41
2023/10/19 03:54:41;;;;;;;0.00;0.00;;;;;;;13.42;100.00;99051.44;5099305;28;20032;-43
2023/10/19 03:57:12;;;;;;;0.00;0.00;;;;;;;13.42;100.00;99051.44;5108672;28;20054;-42
2023/10/19 03:59:38;;;;;;;0.00;0.00;;;;;;;13.42;100.00;99046.03;5109025;28;20035;-43
2023/10/19 04:02:12;;;;;;;0.00;0.00;;;;;;;13.45;100.00;99045.53;5093619;28;20040;-41
2023/10/19 04:04:39;;;;;;;0.00;0.00;;;;;;;13.43;100.00;99042.25;5091832;28;20384;-41
2023/10/19 04:07:11;;;;;;;0.00;0.00;;;;;;;13.44;100.00;99049.31;5108536;28;20024;-44
2023/10/19 04:09:49;;;;;;;0.00;0.00;;;;;;;13.45;100.00;99040.13;5106983;28;20114;-42
2023/10/19 04:12:17;;;;;;;0.00;0.00;;;;;;;13.47;100.00;99033.41;5092085;28;20106;-43
2023/10/19 04:14:42;;;;;;;0.00;0.00;;;;;;;13.45;100.00;99042.84;5105607;28;20114;-43
2023/10/19 04:17:12;;;;;;;0.00;0.00;;;;;;;13.47;100.00;99035.31;5107521;28;20384;-43
2023/10/19 04:19:37;;;;;;;0.00;0.00;;;;;;;13.50;100.00;99040.22;5108546;28;20038;-44
2023/10/19 04:22:04;;;;;;;0.00;0.00;;;;;;;13.49;100.00;99027.78;5107587;28;20122;-40
2023/10/19 04:24:32;;;;;;;0.00;0.00;;;;;;;13.49;100.00;99035.91;5103257;28;20035;-42
2023/10/19 04:26:59;;;;;;;0.00;0.00;;;;;;;13.51;100.00;99022.97;5106605;28;20031;-44
2023/10/19 04:29:27;;;;;;;0.00;0.00;;;;;;;13.51;100.00;99033.78;5108195;28;20032;-42
2023/10/19 04:31:55;;;;;;;0.00;0.00;;;;;;;13.50;100.00;99037.53;5089463;28;20313;-43
2023/10/19 04:34:21;;;;;;;0.00;0.00;;;;;;;13.48;100.00;99045.03;5108145;28;20067;-40
2023/10/19 04:36:49;;;;;;;0.00;0.00;;;;;;;13.50;100.00;99053.75;5108207;28;20115;-43
2023/10/19 04:39:15;;;;;;;0.00;0.00;;;;;;;13.53;100.00;99045.13;5108656;28;20031;-42
2023/10/19 04:41:41;;;;;;;0.00;0.00;;;;;;;13.55;100.00;99043.81;5107779;28;20032;-43
2023/10/19 04:44:10;;;;;;;0.00;0.00;;;;;;;13.57;100.00;99043.59;5112165;28;20071;-41
2023/10/19 04:46:36;;;;;;;0.00;0.00;;;;;;;13.60;100.00;99043.91;5112093;28;20055;-42
2023/10/19 04:49:02;;;;;;;0.00;0.00;;;;;;;13.59;100.00;99038.78;5108082;28;20051;-39
2023/10/19 04:51:28;;;;;;;0.00;0.00;;;;;;;13.58;100.00;99035.22;5111948;27;20032;-41
2023/10/19 04:53:55;;;;;;;0.00;0.00;;;;;;;13.62;100.00;99046.38;5106564;28;20460;-42
2023/10/19 04:56:20;;;;;;;0.00;0.00;;;;;;;13.63;100.00;99041.78;5111374;28;20032;-40
2023/10/19 04:58:47;;;;;;;0.00;0.00;;;;;;;13.65;100.00;99051.28;5111779;28;20027;-42
2023/10/19 05:01:12;;;;;;;0.00;0.00;;;;;;;13.65;100.00;99037.78;5100540;28;20062;-44
2023/10/19 05:03:38;;;;;;;0.00;0.00;;;;;;;13.63;100.00;99037.19;5102801;28;20052;-42
2023/10/19 05:06:03;;;;;;;0.00;0.00;;;;;;;13.63;100.00;99048.00;5093152;28;20035;-42
2023/10/19 05:08:29;;;;;;;0.00;0.00;;;;;;;13.61;100.00;99055.53;5111269;28;20069;-41
2023/10/19 05:10:56;;;;;;;0.00;0.00;;;;;;;13.61;100.00;99060.94;5109646;28;20263;-42
2023/10/19 05:13:25;;;;;;;0.00;0.00;;;;;;;13.60;100.00;99062.81;5085161;28;20424;-42
2023/10/19 05:15:54;;;;;;;0.00;0.00;;;;;;;13.62;100.00;99057.19;5109065;28;20023;-42
2023/10/19 05:18:20;;;;;;;0.00;0.00;;;;;;;13.64;100.00;99059.63;5092899;28;20016;-41
2023/10/19 05:20:46;;;;;;;0.00;0.00;;;;;;;13.65;100.00;99059.41;5109344;28;20027;-42
2023/10/19 05:23:13;;;;;;;0.00;0.00;;;;;;;13.64;100.00;99052.38;5111027;28;20054;-43
2023/10/19 05:25:38;;;;;;;0.00;0.00;;;;;;;13.66;100.00;99052.91;5110786;28;20024;-45
2023/10/19 05:28:08;;;;;;;0.00;0.00;;;;;;;13.67;100.00;99048.34;5110759;28;20027;-44
2023/10/19 05:30:35;;;;;;;0.00;0.00;;;;;;;13.70;100.00;99048.66;5111265;28;20031;-45
2023/10/19 05:33:01;;;;;;;0.00;0.00;;;;;;;13.71;100.00;99047.59;5111517;28;20106;-42
2023/10/19 05:35:27;;;;;;;0.00;0.00;;;;;;;13.70;100.00;99043.25;5101568;28;20066;-43
2023/10/19 05:37:53;;;;;;;0.00;0.00;;;;;;;13.69;100.00;99051.59;5110858;28;20036;-41
2023/10/19 05:40:19;;;;;;;0.00;0.00;;;;;;;13.67;100.00;99051.88;5111270;28;20031;-42
2023/10/19 05:42:45;;;;;;;0.00;0.00;;;;;;;13.65;100.00;99056.69;5100725;28;20046;-42
2023/10/19 05:45:13;;;;;;;0.00;0.00;;;;;;;13.67;100.00;99046.47;5109631;28;20027;-42
2023/10/19 05:47:38;;;;;;;0.00;0.00;;;;;;;13.72;100.00;99049.25;5091455;28;20026;-42
2023/10/19 05:50:04;;;;;;;0.00;0.00;;;;;;;13.66;100.00;99042.09;5058357;28;20035;-43
2023/10/19 05:52:29;;;;;;;0.00;0.00;;;;;;;13.63;100.00;99049.91;5092120;28;20032;-43
2023/10/19 05:54:57;;;;;;;0.00;0.00;;;;;;;13.61;100.00;99055.53;5110133;28;20039;-43
2023/10/19 05:57:22;;;;;;;0.00;0.00;;;;;;;13.61;100.00;99059.09;5107930;28;20137;-41
2023/10/19 05:59:47;;;;;;;0.00;0.00;;;;;;;13.62;100.00;99049.09;5109625;28;20412;-45
2023/10/19 06:02:13;;;;;;;0.00;0.00;;;;;;;13.61;100.00;99061.78;5100432;28;20052;-41
2023/10/19 06:04:38;;;;;;;0.00;0.00;;;;;;;13.67;100.00;99054.56;5088992;28;20023;-41
2023/10/19 06:07:03;;;;;;;0.00;0.00;;;;;;;13.65;100.00;99056.69;5098781;28;20062;-41
2023/10/19 06:09:29;;;;;;;0.00;0.00;;;;;;;13.68;100.00;99069.72;5097054;28;20052;-41
2023/10/19 06:11:57;;;;;;;0.00;0.00;;;;;;;13.69;100.00;99074.06;5105791;28;20088;-44
2023/10/19 06:14:23;;;;;;;0.00;0.00;;;;;;;13.74;100.00;99082.25;5109852;28;20068;-40
2023/10/19 06:16:48;;;;;;;0.00;0.00;;;;;;;13.72;100.00;99083.59;5110645;28;20118;-42
2023/10/19 06:19:13;;;;;;;0.00;0.00;;;;;;;13.72;100.00;99080.88;5108509;28;20118;-43
2023/10/19 06:21:39;;;;;;;0.00;0.00;;;;;;;13.74;100.00;99084.94;5111099;28;20088;-41
2023/10/19 06:24:05;;;;;;;0.00;0.00;;;;;;;13.76;100.00;99084.72;5111083;28;20024;-42
2023/10/19 06:26:31;;;;;;;0.00;0.00;;;;;;;13.76;100.00;99088.22;5105343;28;20045;-43
2023/10/19 06:28:59;;;;;;;0.00;0.00;;;;;;;13.75;100.00;99083.91;5110522;28;20050;-42
2023/10/19 06:31:28;;;;;;;0.00;0.00;;;;;;;13.74;100.00;99089.53;5110331;28;20036;-42
2023/10/19 06:33:53;;;;;;;0.00;0.00;;;;;;;13.74;100.00;99097.66;5108621;28;20634;-40
2023/10/19 06:36:19;;;;;;;0.00;0.00;;;;;;;13.74;100.00;99109.28;5108774;28;20020;-40
2023/10/19 06:38:45;;;;;;;0.00;0.00;;;;;;;13.73;100.00;99106.84;5107379;28;20537;-39
2023/10/19 06:41:14;;;;;;;0.00;0.00;;;;;;;13.71;100.00;99109.78;5110111;28;20032;-40
2023/10/19 06:43:39;;;;;;;0.00;0.00;;;;;;;13.74;100.00;99106.56;5109166;28;20603;-41
2023/10/19 06:46:05;;;;;;;0.00;0.00;;;;;;;13.78;100.00;99115.03;5108716;28;20103;-44
2023/10/19 06:48:31;;;;;;;0.00;0.00;;;;;;;13.78;100.00;99113.16;5109977;28;20544;-43
2023/10/19 06:50:57;;;;;;;0.00;0.00;;;;;;;13.77;100.00;99099.84;5109174;28;20032;-42
2023/10/19 06:53:22;;;;;;;0.00;0.00;;;;;;;13.81;100.00;99109.94;5100243;27;20363;-44
2023/10/19 06:55:47;;;;;;;0.00;0.00;;;;;;;13.89;100.00;99110.59;5110961;28;20035;-42
2023/10/19 06:58:14;;;;;;;0.00;0.00;;;;;;;13.84;100.00;99109.44;5111112;28;20491;-42
2023/10/19 07:00:43;;;;;;;0.00;0.00;;;;;;;13.84;100.00;99105.94;5111425;28;20397;-40
2023/10/19 07:03:09;;;;;;;0.00;0.00;;;;;;;13.87;100.00;99104.63;5099208;28;20044;-41
2023/10/19 07:05:34;;;;;;;0.00;0.00;;;;;;;13.86;100.00;99105.69;5110213;28;20494;-42
2023/10/19 07:08:01;;;;;;;0.00;0.00;;;;;;;13.92;100.00;99104.69;5111045;28;20031;-41
2023/10/19 07:10:27;;;;;;;0.00;0.00;;;;;;;13.92;100.00;99097.41;5106424;28;20034;-44
2023/10/19 07:12:53;;;;;;;0.00;0.00;;;;;;;13.94;100.00;99106.09;5110104;28;20023;-41
2023/10/19 07:15:19;;;;;;;0.00;0.00;;;;;;;13.96;100.00;99122.09;5111216;28;20023;-40
2023/10/19 07:17:50;;;;;;;0.00;0.00;;;;;;;13.95;100.00;99120.44;5110703;28;20402;-42
2023/10/19 07:20:25;;;;;;;0.00;0.00;;;;;;;13.97;100.00;99118.31;5112397;28;20096;-42
2023/10/19 07:22:51;;;;;;;0.00;0.00;;;;;;;14.03;100.00;99115.44;5111456;28;20118;-42
2023/10/19 07:25:21;;;;;;;0.00;0.00;;;;;;;14.12;100.00;99123.97;5111935;28;20023;-43
2023/10/19 07:27:50;;;;;;;0.00;0.00;;;;;;;14.12;100.00;99123.97;5109591;28;20076;-39
2023/10/19 07:30:20;;;;;;;0.00;0.00;;;;;;;14.13;100.00;99116.66;5110420;28;20024;-41
2023/10/19 07:32:51;;;;;;;0.00;0.00;;;;;;;14.12;100.00;99121.25;5110578;28;20031;-41
2023/10/19 07:35:16;;;;;;;0.00;0.00;;;;;;;14.13;100.00;99119.38;5111281;28;20515;-42
2023/10/19 07:37:43;;;;;;;0.00;0.00;;;;;;;14.17;100.00;99123.22;5110529;28;20020;-41
2023/10/19 07:40:13;;;;;;;0.00;0.00;;;;;;;14.19;100.00;99119.22;5111905;28;20032;-42
2023/10/19 07:42:39;;;;;;;0.00;0.00;;;;;;;14.24;100.00;99119.28;5111445;28;20031;-41
2023/10/19 07:45:07;;;;;;;0.00;0.00;;;;;;;14.26;100.00;99127.94;5110442;28;20023;-42
2023/10/19 07:47:32;;;;;;;0.00;0.00;;;;;;;14.36;100.00;99121.88;5109274;28;20065;-42
2023/10/19 07:49:59;;;;;;;0.00;0.00;;;;;;;14.37;100.00;99122.69;5102227;28;20040;-41
2023/10/19 07:52:24;;;;;;;0.00;0.00;;;;;;;14.49;100.00;99116.09;5089499;28;20388;-42
2023/10/19 07:54:50;;;;;;;0.00;0.00;;;;;;;14.50;100.00;99112.31;5101569;28;20028;-42
2023/10/19 07:57:16;;;;;;;0.00;0.00;;;;;;;14.62;100.00;99109.53;5108952;28;20076;-44
2023/10/19 07:59:42;;;;;;;0.00;0.00;;;;;;;14.65;100.00;99114.44;5110073;28;20019;-41
2023/10/19 08:02:08;;;;;;;0.00;0.00;;;;;;;14.66;100.00;99110.66;5108674;28;20130;-42
2023/10/19 08:04:33;;;;;;;0.00;0.00;;;;;;;14.83;100.00;99107.91;5108683;28;20443;-41
2023/10/19 08:06:59;;;;;;;0.00;0.00;;;;;;;14.91;100.00;99107.47;5104236;28;20055;-43
2023/10/19 08:09:26;;;;;;;0.00;0.00;;;;;;;14.88;100.00;99102.56;5108010;28;20099;-42
2023/10/19 08:11:59;;;;;;;0.00;0.00;;;;;;;14.93;100.00;99099.09;5106281;28;20042;-41
2023/10/19 08:14:27;;;;;;;0.00;0.00;;;;;;;14.96;100.00;99097.78;5109006;28;20414;-44
2023/10/19 08:16:52;;;;;;;0.00;0.00;;;;;;;15.01;100.00;99095.94;5106055;28;20370;-41
2023/10/19 08:19:18;;;;;;;0.00;0.00;;;;;;;15.12;100.00;99094.97;5092875;28;20028;-43
2023/10/19 08:21:44;;;;;;;0.00;0.00;;;;;;;15.16;100.00;99095.28;5096863;27;20393;-43
2023/10/19 08:24:13;;;;;;;0.00;0.00;;;;;;;15.17;100.00;99090.69;5091440;28;20059;-43
2023/10/19 08:26:41;;;;;;;0.00;0.00;;;;;;;15.21;100.00;99095.31;5111227;28;20028;-42
2023/10/19 08:29:12;;;;;;;0.00;0.00;;;;;;;15.24;100.00;99089.38;5110255;28;20059;-40
2023/10/19 08:31:39;;;;;;;0.00;0.00;;;;;;;15.18;100.00;99098.56;5111994;28;20069;-42
2023/10/19 08:34:05;;;;;;;0.00;0.00;;;;;;;15.15;100.00;99091.75;5114666;28;20040;-42
2023/10/19 08:36:31;;;;;;;0.00;0.00;;;;;;;15.25;100.00;99101.06;5111015;27;20525;-43
2023/10/19 08:38:56;;;;;;;0.00;0.00;;;;;;;15.33;100.00;99092.47;5094384;28;20084;-41
2023/10/19 08:41:23;;;;;;;0.00;0.00;;;;;;;15.42;100.00;99090.94;5114059;28;20116;-40
2023/10/19 08:43:49;;;;;;;0.00;0.00;;;;;;;15.47;100.00;99085.56;5114454;28;20020;-42
2023/10/19 08:46:14;;;;;;;0.00;0.00;;;;;;;15.47;100.00;99082.84;5113805;28;20046;-42
2023/10/19 08:48:41;;;;;;;0.00;0.00;;;;;;;15.53;100.00;99081.84;5114176;28;20023;-42
2023/10/19 08:51:10;;;;;;;0.00;0.00;;;;;;;15.62;100.00;99079.47;5114396;28;20104;-44
2023/10/19 08:53:41;;;;;;;0.00;0.00;;;;;;;15.72;100.00;99089.63;5114283;28;20134;-42
2023/10/19 08:56:11;;;;;;;0.00;0.00;;;;;;;15.76;100.00;99083.41;5079249;28;20516;-44
2023/10/19 08:58:37;;;;;;;0.00;0.00;;;;;;;15.94;100.00;99074.03;5115262;28;20106;-41
2023/10/19 09:01:09;;;;;;;0.00;0.00;;;;;;;15.99;100.00;99070.56;5114753;28;20393;-43
2023/10/19 09:03:35;;;;;;;0.00;0.00;;;;;;;15.97;100.00;99076.22;5097991;28;20052;-42
2023/10/19 09:06:02;;;;;;;0.00;0.00;;;;;;;15.93;100.00;99075.13;5107005;27;20404;-43
2023/10/19 09:08:38;;;;;;;0.00;0.00;;;;;;;15.89;100.00;99063.16;5126061;27;20020;-41
2023/10/19 09:11:07;;;;;;;0.00;0.00;;;;;;;15.90;100.00;99077.53;5096956;28;20063;-41
2023/10/19 09:13:49;;;;;;;0.00;0.00;;;;;;;15.83;100.00;99066.91;5114608;28;20032;-41
2023/10/19 09:16:18;;;;;;;0.00;0.00;;;;;;;15.86;100.00;99069.09;5115359;28;20489;-42
2023/10/19 09:18:44;;;;;;;0.00;0.00;;;;;;;15.91;100.00;99066.44;5114333;28;20023;-43
2023/10/19 09:21:21;;;;;;;0.00;0.00;;;;;;;15.95;100.00;99072.97;5096512;28;20051;-41
2023/10/19 09:23:47;;;;;;;0.00;0.00;;;;;;;15.97;100.00;99075.41;5113334;28;20028;-41
2023/10/19 09:26:12;;;;;;;0.00;0.00;;;;;;;16.05;100.00;99063.25;5096899;28;20127;-41
2023/10/19 09:28:39;;;;;;;0.00;0.00;;;;;;;16.04;100.00;99064.34;5094714;28;20514;-43
2023/10/19 09:31:05;;;;;;;0.00;0.00;;;;;;;16.02;100.00;99051.03;5113688;28;20027;-43
2023/10/19 09:33:33;;;;;;;0.00;0.00;;;;;;;16.27;100.00;99050.34;5113715;28;20534;-41
2023/10/19 09:36:00;;;;;;;0.00;0.00;;;;;;;16.35;100.00;99044.44;5113286;28;20024;-40
2023/10/19 09:38:26;;;;;;;0.00;0.00;;;;;;;16.31;100.00;99050.66;5111804;28;20119;-41
2023/10/19 09:40:54;;;;;;;0.00;0.00;;;;;;;16.36;100.00;99046.06;5111670;28;20477;-41
2023/10/19 09:43:48;;;;;;;0.00;0.00;;;;;;;16.36;100.00;99037.13;5111890;28;20012;-43
2023/10/19 09:46:21;;;;;;;0.00;0.00;;;;;;;16.41;100.00;99040.69;5104075;28;20112;-43
2023/10/19 09:48:50;;;;;;;0.00;0.00;;;;;;;16.39;100.00;99047.44;5111648;28;20435;-41
2023/10/19 09:51:16;;;;;;;0.00;0.00;;;;;;;16.55;100.00;99026.59;5112085;28;20035;-41
2023/10/19 09:53:45;;;;;;;0.00;0.00;;;;;;;16.62;100.00;99040.78;5106131;27;20068;-41
2023/10/19 09:56:17;;;;;;;0.00;0.00;;;;;;;16.54;100.00;99046.72;5099335;28;20034;-44
2023/10/19 09:58:48;;;;;;;0.00;0.00;;;;;;;16.43;100.00;99043.13;5103680;28;20036;-42
2023/10/19 10:01:15;;;;;;;0.00;0.00;;;;;;;16.32;100.00;99050.38;5094765;28;20063;-41
2023/10/19 10:03:47;;;;;;;0.00;0.00;;;;;;;16.15;100.00;99047.06;5079290;28;20054;-42
2023/10/19 10:06:14;;;;;;;0.00;0.00;;;;;;;16.04;100.00;99057.03;5060535;28;20442;-42
2023/10/19 10:08:46;;;;;;;0.00;0.00;;;;;;;15.98;100.00;99053.47;5060684;28;20098;-43
2023/10/19 10:11:27;;;;;;;0.00;0.00;;;;;;;16.04;100.00;99059.75;5072246;28;20029;-41
2023/10/19 10:13:56;;;;;;;0.00;0.00;;;;;;;16.15;100.00;99057.91;5072723;28;20046;-42
2023/10/19 10:16:24;;;;;;;0.00;0.00;;;;;;;16.32;100.00;99055.81;5070402;28;20521;-42
2023/10/19 10:18:51;;;;;;;0.00;0.00;;;;;;;16.61;100.00;99039.13;5071671;28;20020;-43
2023/10/19 10:21:20;;;;;;;0.00;0.00;;;;;;;16.79;100.00;99027.81;5070013;28;20034;-41
2023/10/19 10:23:52;;;;;;;0.00;0.00;;;;;;;16.99;100.00;99018.91;5068764;28;20749;-42
2023/10/19 10:26:18;;;;;;;0.00;0.00;;;;;;;17.14;100.00;99023.56;5067768;28;20055;-41
2023/10/19 10:28:49;;;;;;;0.00;0.00;;;;;;;17.32;100.00;99030.34;5100752;28;20024;-41
2023/10/19 10:31:20;;;;;;;0.00;0.00;;;;;;;17.36;100.00;99044.25;5070057;28;20042;-41
2023/10/19 10:33:45;;;;;;;0.00;0.00;;;;;;;17.34;100.00;99041.78;5070268;28;20031;-42
2023/10/19 10:36:12;;;;;;;0.00;0.00;;;;;;;17.40;100.00;99023.56;5049803;28;20033;-43
2023/10/19 10:38:37;;;;;;;0.00;0.00;;;;;;;17.37;100.00;99029.53;5049877;28;20652;-42
2023/10/19 10:41:03;;;;;;;0.00;0.00;;;;;;;17.39;100.00;99024.66;5049552;28;20268;-41
2023/10/19 10:43:29;;;;;;;0.00;0.00;;;;;;;17.52;100.00;99022.22;5049326;28;20021;-42
2023/10/19 10:46:05;;;;;;;0.00;0.00;;;;;;;17.59;100.00;99027.38;5059520;28;20033;-43
2023/10/19 10:48:30;;;;;;;0.00;0.00;;;;;;;17.45;100.00;99029.81;5066789;28;20043;-42
2023/10/19 10:50:55;;;;;;;0.00;0.00;;;;;;;17.29;100.00;99034.44;5069514;28;20024;-43
2023/10/19 10:53:24;;;;;;;0.00;0.00;;;;;;;17.22;100.00;99025.75;5063990;28;20076;-42
2023/10/19 10:55:50;;;;;;;0.00;0.00;;;;;;;17.39;100.00;99008.34;5067109;28;20131;-44
2023/10/19 10:58:18;;;;;;;0.00;0.00;;;;;;;17.31;100.00;99002.34;5085390;28;20418;-41
2023/10/19 11:00:45;;;;;;;0.00;0.00;;;;;;;17.36;100.00;99004.25;5068583;28;20051;-41
2023/10/19 11:03:10;;;;;;;0.00;0.00;;;;;;;17.41;100.00;99012.44;5113430;27;20043;-41
2023/10/19 11:05:37;;;;;;;0.00;0.00;;;;;;;17.54;100.00;99022.75;5122132;27;20496;-41
2023/10/19 11:08:24;;;;;;;0.00;0.00;;;;;;;17.63;100.00;99008.59;5091952;28;20035;-40
2023/10/19 11:10:50;;;;;;;0.00;0.00;;;;;;;17.80;100.00;99009.19;5093869;28;20040;-41
2023/10/19 11:13:23;;;;;;;0.00;0.00;;;;;;;17.95;100.00;98990.06;5091509;28;20463;-41
2023/10/19 11:15:53;;;;;;;0.00;0.00;;;;;;;18.03;100.00;98983.25;5072198;28;20102;-39
2023/10/19 11:18:49;;;;;;;0.00;0.00;;;;;;;18.03;100.00;98979.72;5072623;28;20024;-40
2023/10/19 11:21:15;;;;;;;0.00;0.00;;;;;;;17.93;100.00;98975.09;5058557;28;20070;-41
2023/10/19 11:23:46;;;;;;;0.00;0.00;;;;;;;17.88;100.00;98973.25;5070892;28;20429;-40
2023/10/19 11:26:13;;;;;;;0.00;0.00;;;;;;;17.65;100.00;98980.03;5071225;28;20062;-41
2023/10/19 11:28:43;;;;;;;0.00;0.00;;;;;;;17.58;100.00;98974.06;5070982;28;20108;-42
2023/10/19 11:31:23;;;;;;;0.00;0.00;;;;;;;17.48;100.00;98979.50;5070875;28;20032;-39
2023/10/19 11:33:53;;;;;;;0.00;0.00;;;;;;;17.45;100.00;98974.63;5070739;28;20433;-40
2023/10/19 11:36:20;;;;;;;0.00;0.00;;;;;;;17.43;100.00;98965.91;5070641;28;20081;-43
2023/10/19 11:38:46;;;;;;;0.00;0.00;;;;;;;17.45;100.00;98964.53;5070797;28;20029;-41
2023/10/19 11:41:13;;;;;;;0.00;0.00;;;;;;;17.42;100.00;98972.44;5071523;28;20340;-40
2023/10/19 11:43:44;;;;;;;0.00;0.00;;;;;;;17.33;100.00;98973.00;5070547;28;20640;-41